Hlavní strana
METAR-TAF:

METAR-TAF

Letiště :

Letiště Vratislav

Vratislav, Polsko

zeměpisná šířka: 51-06N, zeměpisná délka: 016-53E, výška: 120 m

Aktuální stav počasí

Zpráva byla vytvořena před 19 minutami, v 01:30 UTC
Západoseverozápadní vítr 2 kt
Teplota 16°C
Vlhkost vzduchu 88%
Tlak 1021 hPa
Viditelnost 10 km a více
Žádná oblačnost pod 1500 m, nevyskytují se cumulonimby.

METAR: EPWR 190130Z 29002KT CAVOK 16/14 Q1021

Čas: 03:49 (01:49 UTC)

Předpověď počasí

Zpráva byla vytvořena před 2 hodinami a 19 minutami, v 23:30 UTC
Předpověď platná od 19 v 00 UTC do 19 v 24 UTC
vítr z různých směrů 2 kt
Viditelnost 10 km a více
Žádná oblačnost pod 1500 m, nevyskytují se cumulonimby.
Pravděpodobnost 30%
od 19 v 02 UTC do 19 v 05 UTC
Viditelnost: 3000 m
kouřmo

TAF: EPWR 182330Z 1900/1924 VRB02KT CAVOK PROB30 1902/1905 3000 BR

Stav a předpovědi počasí z více než 4 000 letišť (zprávy METAR a TAF).

Červené a žluté tečky na mapě představují dostupné meteorologické stanice.

Když kurzor umístíte na tečku, zobrazí se název stanice.

Pak kliknutím zobrazíte stav a předpověď počasí.

Chcete-li změnit mapu, kliknutím na zelené tlačítko se znaménkem +mapu přiblížíte, kliknutím na zelené tlačítko se znaménkem – mapu oddálíte a kliknutím na zelené šipky přejdete na sousední mapy.


METAR-TAF: